Brookeland, Texas
Current Conditions -  °F | °C
As of 12:55 AM on Thursday 23 Oct 2014 (Local Time) from KJAS Reporting Station
Clear Clear  
Wind Chill: 59°   Ceiling: Unl
Heat Index: 59°   Visibility: 10mi
Dew Point: 53°   Wind: 5mph
Humidity: 78%   Direction: 60°ENE
Pressure: 30.12"   Gusts: NA
Location:  31.15°N, 93.99°W
Report Text: KJAS 230555Z AUTO 06004KT 10SM CLR 15/11 A3012 RMK AO2 T01520114
Loading
Personal Weather Stations






























Interactive Weather Map
Tropical Storm Tracking
New forecast layout! Learn more

10-Day Weather Forecast

Advertisements
Track Severe Weather on mobile